Startpagina
METAR-TAF:

METAR-TAF

Vliegvelden :

Flughafen Saarbrücken

Saarbrücken, Duitsland

breedte: 49-13N, lengte: 007-07E, hoogte: 322 m

Actueel weer

Dit bericht is 22 minuten geleden gemaakt, om 12:20 UTC
Wind 7 kt uit het noordnoordoosten, variërend tussen het noordnoordwesten en het oostnoordoosten
Temperatuur 21°C
Vochtigheid 40%
Druk 1023 hPa
Zicht 10 km of meer
geen wolken onder 1500 m en geen cumulonimbus

METAR: EDDR 101220Z 02007KT 340V070 CAVOK 21/07 Q1023 NOSIG

Tijdstip: 14:42 (12:42 UTC)

Verwachting

Dit bericht is 1 uur en het 42 minuten geleden gemaakt, om 11:00 UTC
Verwachting geldig van 10 om 12 UTC tot 11 om 12 UTC
Wind 6 kt uit het noordoosten
Zicht 10 km of meer
geen wolken onder 1500 m en geen cumulonimbus

TAF: EDDR 101100Z 1012/1112 05006KT CAVOK

Waarnemingen en weersverwachtingen van meer dan 4000 vliegvelden (METAR en TAF).

De beschikbare stations zijn de gele en rode punten op de kaart.

Ga met uw muis naar het station om de naam te zien.

Klik dan om waarnemingen en weersverwachtingen te zien.

kaart wijzigen: klik op de groene knoppen met een zwart kruis om in te zoomen, op de groene knop met een streepje om uit te zoomen of op de groene pijlen voor aangrenzende kaarten.


METAR-TAF: